UUBW 060630Z 12002MPS CAVOK M11/M15 Q1033 R30/810250 NOSIG
QNH:(hPa/inHg/mmHg)1033 / 30.5 / 775
QFE:(hPa/inHg/mmHg)984 / 29.06 / 738
Temperature-11
Dew Point-15
Visibility> 10000
WeatherCAVOK
Cloud Cover
Transition Altitude10000 ft.
Transition LevelFL110
SQUAWK